createdAt,value
2017-12-21T00:18:06.641Z,11.93
2017-12-21T00:38:44.984Z,8.30
2017-12-21T00:59:20.365Z,8.57
2017-12-21T01:19:53.378Z,11.23
2017-12-21T01:40:26.496Z,7.63
2017-12-21T02:01:02.693Z,9.33
2017-12-21T02:21:37.039Z,8.20
2017-12-21T02:42:10.162Z,8.37
2017-12-21T03:02:43.818Z,7.10
2017-12-21T03:23:17.639Z,7.37
2017-12-21T03:43:54.753Z,7.00
2017-12-21T04:04:31.374Z,8.87
2017-12-21T04:25:07.614Z,6.90
2017-12-21T05:03:42.234Z,6.17
2017-12-21T05:24:16.595Z,12.70
2017-12-21T05:44:58.046Z,4.80
2017-12-21T06:05:32.046Z,3.23
2017-12-21T06:26:07.318Z,7.70
2017-12-21T06:46:44.751Z,4.07
2017-12-21T07:07:20.626Z,4.50
2017-12-21T07:27:54.973Z,4.30
2017-12-21T07:48:27.404Z,3.73
2017-12-21T08:09:01.223Z,5.27
2017-12-21T08:29:34.884Z,5.97
2017-12-21T08:50:05.619Z,4.57
2017-12-21T09:10:36.894Z,3.87
2017-12-21T09:31:11.245Z,3.43
2017-12-21T09:51:46.517Z,5.50
2017-12-21T10:12:20.894Z,7.73
2017-12-21T10:32:52.758Z,6.77
2017-12-21T10:53:26.303Z,5.33
2017-12-21T11:14:00.229Z,3.90
2017-12-21T11:34:35.759Z,4.50
2017-12-21T11:55:09.847Z,8.73
2017-12-21T12:15:48.195Z,4.50
2017-12-21T12:36:23.475Z,5.70
2017-12-21T12:56:59.707Z,3.70
2017-12-21T13:17:34.942Z,5.70
2017-12-21T13:38:06.234Z,2.83
2017-12-21T13:58:39.945Z,3.03
2017-12-21T14:19:20.712Z,2.30
2017-12-21T14:39:52.656Z,2.53
2017-12-21T15:00:27.602Z,2.50
2017-12-21T15:21:05.021Z,6.60
2017-12-21T15:41:38.152Z,2.53
2017-12-21T16:02:11.569Z,2.43
2017-12-21T16:22:45.001Z,3.07
2017-12-21T16:43:22.187Z,3.50
2017-12-21T17:21:56.904Z,3.03
2017-12-21T17:42:33.099Z,5.90
2017-12-21T18:03:08.368Z,9.53
2017-12-21T18:23:43.806Z,5.70
2017-12-21T18:44:20.453Z,4.10
2017-12-21T19:04:58.793Z,7.57
2017-12-21T19:25:34.070Z,11.83
2017-12-21T19:46:10.570Z,6.87
2017-12-21T20:06:49.833Z,6.10
2017-12-21T20:27:21.114Z,10.20
2017-12-21T20:47:56.087Z,7.77
2017-12-21T21:08:28.279Z,12.47
2017-12-21T21:29:01.708Z,12.53
2017-12-21T21:49:33.907Z,11.67
2017-12-21T22:10:10.100Z,12.30
2017-12-21T22:30:45.370Z,12.30
2017-12-21T22:51:18.491Z,12.00
2017-12-21T23:11:51.976Z,11.93
2017-12-21T23:32:26.583Z,12.30
2017-12-21T23:53:06.486Z,13.37
